sensor_id;sensor_type;location;lat;lon;timestamp;P1;durP1;ratioP1;P2;durP2;ratioP2
3083;SDS011;1552;51.952;7.618;2022-08-25T00:00:34;5.45;;;2.75;;
3083;SDS011;1552;51.952;7.618;2022-08-25T00:03:01;6.40;;;3.05;;
3083;SDS011;1552;51.952;7.618;2022-08-25T00:05:27;5.13;;;3.50;;
3083;SDS011;1552;51.952;7.618;2022-08-25T00:07:55;5.88;;;3.45;;
3083;SDS011;1552;51.952;7.618;2022-08-25T00:10:21;4.10;;;2.70;;
3083;SDS011;1552;51.952;7.618;2022-08-25T00:12:49;3.47;;;2.60;;
3083;SDS011;1552;51.952;7.618;2022-08-25T00:15:15;3.83;;;2.70;;
3083;SDS011;1552;51.952;7.618;2022-08-25T00:17:42;4.20;;;2.65;;
3083;SDS011;1552;51.952;7.618;2022-08-25T00:20:08;4.88;;;2.70;;
3083;SDS011;1552;51.952;7.618;2022-08-25T00:22:35;3.38;;;2.63;;
3083;SDS011;1552;51.952;7.618;2022-08-25T00:25:01;4.40;;;2.60;;
3083;SDS011;1552;51.952;7.618;2022-08-25T00:27:28;5.28;;;2.65;;
3083;SDS011;1552;51.952;7.618;2022-08-25T00:29:55;5.70;;;3.13;;
3083;SDS011;1552;51.952;7.618;2022-08-25T00:32:22;5.70;;;3.10;;
3083;SDS011;1552;51.952;7.618;2022-08-25T00:34:49;4.63;;;2.45;;
3083;SDS011;1552;51.952;7.618;2022-08-25T00:37:16;4.65;;;2.90;;
3083;SDS011;1552;51.952;7.618;2022-08-25T00:39:42;5.20;;;3.00;;
3083;SDS011;1552;51.952;7.618;2022-08-25T00:42:08;5.35;;;3.08;;
3083;SDS011;1552;51.952;7.618;2022-08-25T00:44:35;5.22;;;2.70;;
3083;SDS011;1552;51.952;7.618;2022-08-25T00:47:03;4.03;;;2.58;;
3083;SDS011;1552;51.952;7.618;2022-08-25T00:49:33;3.15;;;2.53;;
3083;SDS011;1552;51.952;7.618;2022-08-25T00:52:02;5.43;;;3.17;;
3083;SDS011;1552;51.952;7.618;2022-08-25T00:54:29;5.57;;;3.22;;
3083;SDS011;1552;51.952;7.618;2022-08-25T00:56:57;4.15;;;2.75;;
3083;SDS011;1552;51.952;7.618;2022-08-25T00:59:24;4.85;;;3.42;;
3083;SDS011;1552;51.952;7.618;2022-08-25T01:01:52;6.95;;;3.50;;
3083;SDS011;1552;51.952;7.618;2022-08-25T01:04:20;5.70;;;3.15;;
3083;SDS011;1552;51.952;7.618;2022-08-25T01:06:47;5.57;;;3.67;;
3083;SDS011;1552;51.952;7.618;2022-08-25T01:09:14;4.50;;;3.47;;
3083;SDS011;1552;51.952;7.618;2022-08-25T01:11:40;5.03;;;3.05;;
3083;SDS011;1552;51.952;7.618;2022-08-25T01:14:07;7.07;;;3.75;;
3083;SDS011;1552;51.952;7.618;2022-08-25T01:16:35;5.43;;;2.90;;
3083;SDS011;1552;51.952;7.618;2022-08-25T01:19:02;6.20;;;3.15;;
3083;SDS011;1552;51.952;7.618;2022-08-25T01:21:31;5.00;;;2.70;;
3083;SDS011;1552;51.952;7.618;2022-08-25T01:24:02;5.38;;;3.10;;
3083;SDS011;1552;51.952;7.618;2022-08-25T01:26:30;4.82;;;2.88;;
3083;SDS011;1552;51.952;7.618;2022-08-25T01:28:57;7.65;;;2.90;;
3083;SDS011;1552;51.952;7.618;2022-08-25T01:31:41;3.00;;;2.58;;
3083;SDS011;1552;51.952;7.618;2022-08-25T01:34:08;3.75;;;2.53;;
3083;SDS011;1552;51.952;7.618;2022-08-25T01:36:37;2.92;;;2.40;;
3083;SDS011;1552;51.952;7.618;2022-08-25T01:39:04;4.90;;;2.85;;
3083;SDS011;1552;51.952;7.618;2022-08-25T01:41:35;4.75;;;2.53;;
3083;SDS011;1552;51.952;7.618;2022-08-25T01:44:06;3.30;;;2.40;;
3083;SDS011;1552;51.952;7.618;2022-08-25T01:46:32;2.85;;;2.42;;
3083;SDS011;1552;51.952;7.618;2022-08-25T01:49:01;2.97;;;2.53;;
3083;SDS011;1552;51.952;7.618;2022-08-25T01:51:28;4.35;;;2.63;;
3083;SDS011;1552;51.952;7.618;2022-08-25T01:53:56;5.07;;;2.90;;
3083;SDS011;1552;51.952;7.618;2022-08-25T01:56:22;4.50;;;2.65;;
3083;SDS011;1552;51.952;7.618;2022-08-25T01:58:48;2.70;;;2.35;;
3083;SDS011;1552;51.952;7.618;2022-08-25T02:01:16;4.78;;;2.63;;
3083;SDS011;1552;51.952;7.618;2022-08-25T02:03:43;4.10;;;2.60;;
3083;SDS011;1552;51.952;7.618;2022-08-25T02:06:10;5.70;;;2.78;;
3083;SDS011;1552;51.952;7.618;2022-08-25T02:08:36;4.22;;;2.72;;
3083;SDS011;1552;51.952;7.618;2022-08-25T02:11:04;6.53;;;3.08;;
3083;SDS011;1552;51.952;7.618;2022-08-25T02:13:31;5.40;;;2.85;;
3083;SDS011;1552;51.952;7.618;2022-08-25T02:15:58;5.72;;;2.85;;
3083;SDS011;1552;51.952;7.618;2022-08-25T02:18:25;5.18;;;2.50;;
3083;SDS011;1552;51.952;7.618;2022-08-25T02:20:52;8.10;;;2.80;;
3083;SDS011;1552;51.952;7.618;2022-08-25T02:23:18;5.35;;;2.85;;
3083;SDS011;1552;51.952;7.618;2022-08-25T02:25:44;4.28;;;2.88;;
3083;SDS011;1552;51.952;7.618;2022-08-25T02:28:12;4.50;;;2.60;;
3083;SDS011;1552;51.952;7.618;2022-08-25T02:30:39;5.78;;;2.85;;
3083;SDS011;1552;51.952;7.618;2022-08-25T02:33:06;3.38;;;2.67;;
3083;SDS011;1552;51.952;7.618;2022-08-25T02:35:32;2.90;;;2.08;;
3083;SDS011;1552;51.952;7.618;2022-08-25T02:37:59;3.40;;;2.72;;
3083;SDS011;1552;51.952;7.618;2022-08-25T02:40:25;5.55;;;2.75;;
3083;SDS011;1552;51.952;7.618;2022-08-25T02:42:52;4.30;;;2.55;;
3083;SDS011;1552;51.952;7.618;2022-08-25T02:45:20;3.13;;;2.50;;
3083;SDS011;1552;51.952;7.618;2022-08-25T02:47:47;5.57;;;2.88;;
3083;SDS011;1552;51.952;7.618;2022-08-25T02:50:13;3.03;;;2.55;;
3083;SDS011;1552;51.952;7.618;2022-08-25T02:52:39;4.85;;;3.00;;
3083;SDS011;1552;51.952;7.618;2022-08-25T02:55:07;8.35;;;2.55;;
3083;SDS011;1552;51.952;7.618;2022-08-25T02:57:34;5.00;;;2.88;;
3083;SDS011;1552;51.952;7.618;2022-08-25T03:00:02;3.15;;;2.85;;
3083;SDS011;1552;51.952;7.618;2022-08-25T03:02:30;3.60;;;2.50;;
3083;SDS011;1552;51.952;7.618;2022-08-25T03:04:56;4.70;;;2.70;;
3083;SDS011;1552;51.952;7.618;2022-08-25T03:07:23;5.00;;;2.95;;
3083;SDS011;1552;51.952;7.618;2022-08-25T03:09:49;3.10;;;2.60;;
3083;SDS011;1552;51.952;7.618;2022-08-25T03:12:16;4.88;;;3.00;;
3083;SDS011;1552;51.952;7.618;2022-08-25T03:14:43;5.45;;;2.72;;
3083;SDS011;1552;51.952;7.618;2022-08-25T03:17:09;3.25;;;2.40;;
3083;SDS011;1552;51.952;7.618;2022-08-25T03:19:37;4.35;;;2.85;;
3083;SDS011;1552;51.952;7.618;2022-08-25T03:22:03;6.53;;;3.15;;
3083;SDS011;1552;51.952;7.618;2022-08-25T03:24:30;6.30;;;3.10;;
3083;SDS011;1552;51.952;7.618;2022-08-25T03:26:56;4.43;;;3.17;;
3083;SDS011;1552;51.952;7.618;2022-08-25T03:29:22;3.63;;;3.00;;
3083;SDS011;1552;51.952;7.618;2022-08-25T03:31:49;7.00;;;3.78;;
3083;SDS011;1552;51.952;7.618;2022-08-25T03:34:16;3.58;;;2.63;;
3083;SDS011;1552;51.952;7.618;2022-08-25T03:36:44;4.05;;;2.65;;
3083;SDS011;1552;51.952;7.618;2022-08-25T03:39:11;3.25;;;2.90;;
3083;SDS011;1552;51.952;7.618;2022-08-25T03:41:37;5.05;;;2.80;;
3083;SDS011;1552;51.952;7.618;2022-08-25T03:44:05;5.65;;;2.80;;
3083;SDS011;1552;51.952;7.618;2022-08-25T03:46:33;4.78;;;2.83;;
3083;SDS011;1552;51.952;7.618;2022-08-25T03:49:02;6.20;;;3.20;;
3083;SDS011;1552;51.952;7.618;2022-08-25T03:51:31;4.03;;;2.90;;
3083;SDS011;1552;51.952;7.618;2022-08-25T03:53:59;4.75;;;3.20;;
3083;SDS011;1552;51.952;7.618;2022-08-25T03:56:26;6.43;;;3.42;;
3083;SDS011;1552;51.952;7.618;2022-08-25T03:58:52;5.32;;;3.15;;
3083;SDS011;1552;51.952;7.618;2022-08-25T04:01:19;4.20;;;3.28;;
3083;SDS011;1552;51.952;7.618;2022-08-25T04:03:45;9.68;;;3.45;;
3083;SDS011;1552;51.952;7.618;2022-08-25T04:06:12;4.28;;;3.45;;
3083;SDS011;1552;51.952;7.618;2022-08-25T04:08:39;3.42;;;3.03;;
3083;SDS011;1552;51.952;7.618;2022-08-25T04:11:07;6.53;;;3.45;;
3083;SDS011;1552;51.952;7.618;2022-08-25T04:13:34;8.52;;;3.45;;
3083;SDS011;1552;51.952;7.618;2022-08-25T04:16:01;5.88;;;3.40;;
3083;SDS011;1552;51.952;7.618;2022-08-25T04:18:27;4.93;;;3.35;;
3083;SDS011;1552;51.952;7.618;2022-08-25T04:21:00;3.67;;;2.88;;
3083;SDS011;1552;51.952;7.618;2022-08-25T04:23:26;3.35;;;2.95;;
3083;SDS011;1552;51.952;7.618;2022-08-25T04:25:53;6.60;;;3.40;;
3083;SDS011;1552;51.952;7.618;2022-08-25T04:28:20;5.10;;;3.13;;
3083;SDS011;1552;51.952;7.618;2022-08-25T04:30:47;7.78;;;3.50;;
3083;SDS011;1552;51.952;7.618;2022-08-25T04:33:14;4.50;;;3.20;;
3083;SDS011;1552;51.952;7.618;2022-08-25T04:35:43;4.75;;;3.30;;
3083;SDS011;1552;51.952;7.618;2022-08-25T04:38:11;10.27;;;3.97;;
3083;SDS011;1552;51.952;7.618;2022-08-25T04:40:37;4.80;;;3.25;;
3083;SDS011;1552;51.952;7.618;2022-08-25T04:43:04;6.70;;;4.03;;
3083;SDS011;1552;51.952;7.618;2022-08-25T04:45:31;6.00;;;3.78;;
3083;SDS011;1552;51.952;7.618;2022-08-25T04:48:01;5.18;;;3.58;;
3083;SDS011;1552;51.952;7.618;2022-08-25T04:50:27;4.97;;;3.83;;
3083;SDS011;1552;51.952;7.618;2022-08-25T04:52:53;7.38;;;4.10;;
3083;SDS011;1552;51.952;7.618;2022-08-25T04:55:20;4.72;;;3.85;;
3083;SDS011;1552;51.952;7.618;2022-08-25T04:57:46;4.60;;;3.42;;
3083;SDS011;1552;51.952;7.618;2022-08-25T05:00:13;7.18;;;3.85;;
3083;SDS011;1552;51.952;7.618;2022-08-25T05:02:41;6.43;;;4.07;;
3083;SDS011;1552;51.952;7.618;2022-08-25T05:05:07;7.35;;;3.83;;
3083;SDS011;1552;51.952;7.618;2022-08-25T05:07:33;7.53;;;4.07;;
3083;SDS011;1552;51.952;7.618;2022-08-25T05:10:02;4.78;;;3.72;;
3083;SDS011;1552;51.952;7.618;2022-08-25T05:12:29;9.07;;;4.28;;
3083;SDS011;1552;51.952;7.618;2022-08-25T05:14:55;5.55;;;3.70;;
3083;SDS011;1552;51.952;7.618;2022-08-25T05:17:43;9.35;;;5.13;;
3083;SDS011;1552;51.952;7.618;2022-08-25T05:20:10;6.45;;;3.53;;
3083;SDS011;1552;51.952;7.618;2022-08-25T05:22:36;7.90;;;4.22;;
3083;SDS011;1552;51.952;7.618;2022-08-25T05:25:03;6.50;;;4.32;;
3083;SDS011;1552;51.952;7.618;2022-08-25T05:27:29;5.22;;;3.67;;
3083;SDS011;1552;51.952;7.618;2022-08-25T05:30:06;7.63;;;3.65;;
3083;SDS011;1552;51.952;7.618;2022-08-25T05:32:34;7.63;;;4.25;;
3083;SDS011;1552;51.952;7.618;2022-08-25T05:35:02;12.30;;;4.55;;
3083;SDS011;1552;51.952;7.618;2022-08-25T05:37:29;9.13;;;4.30;;
3083;SDS011;1552;51.952;7.618;2022-08-25T05:39:55;6.25;;;4.30;;
3083;SDS011;1552;51.952;7.618;2022-08-25T05:42:22;10.70;;;4.60;;
3083;SDS011;1552;51.952;7.618;2022-08-25T05:44:49;5.72;;;4.25;;
3083;SDS011;1552;51.952;7.618;2022-08-25T05:47:15;14.02;;;4.85;;
3083;SDS011;1552;51.952;7.618;2022-08-25T05:49:42;5.05;;;4.20;;
3083;SDS011;1552;51.952;7.618;2022-08-25T05:52:09;8.93;;;4.75;;
3083;SDS011;1552;51.952;7.618;2022-08-25T05:54:37;9.32;;;4.28;;
3083;SDS011;1552;51.952;7.618;2022-08-25T05:57:04;9.15;;;5.13;;
3083;SDS011;1552;51.952;7.618;2022-08-25T05:59:30;9.23;;;4.65;;
3083;SDS011;1552;51.952;7.618;2022-08-25T06:01:57;5.18;;;4.47;;
3083;SDS011;1552;51.952;7.618;2022-08-25T06:04:41;10.48;;;5.60;;
3083;SDS011;1552;51.952;7.618;2022-08-25T06:07:07;12.88;;;6.60;;
3083;SDS011;1552;51.952;7.618;2022-08-25T06:09:37;8.20;;;5.70;;
3083;SDS011;1552;51.952;7.618;2022-08-25T06:12:04;7.97;;;4.90;;
3083;SDS011;1552;51.952;7.618;2022-08-25T06:14:30;8.18;;;4.95;;
3083;SDS011;1552;51.952;7.618;2022-08-25T06:16:56;6.85;;;4.65;;
3083;SDS011;1552;51.952;7.618;2022-08-25T06:19:24;10.18;;;4.95;;
3083;SDS011;1552;51.952;7.618;2022-08-25T06:21:52;10.30;;;4.25;;
3083;SDS011;1552;51.952;7.618;2022-08-25T06:24:18;6.75;;;4.38;;
3083;SDS011;1552;51.952;7.618;2022-08-25T06:26:46;7.55;;;4.35;;
3083;SDS011;1552;51.952;7.618;2022-08-25T06:29:12;8.05;;;5.00;;
3083;SDS011;1552;51.952;7.618;2022-08-25T06:31:38;6.47;;;4.78;;
3083;SDS011;1552;51.952;7.618;2022-08-25T06:34:06;7.97;;;5.78;;
3083;SDS011;1552;51.952;7.618;2022-08-25T06:36:33;8.23;;;4.90;;
3083;SDS011;1552;51.952;7.618;2022-08-25T06:38:59;12.25;;;5.50;;
3083;SDS011;1552;51.952;7.618;2022-08-25T06:41:26;8.38;;;5.80;;
3083;SDS011;1552;51.952;7.618;2022-08-25T06:43:56;10.57;;;5.32;;
3083;SDS011;1552;51.952;7.618;2022-08-25T06:46:25;7.57;;;5.10;;
3083;SDS011;1552;51.952;7.618;2022-08-25T06:48:52;7.85;;;5.53;;
3083;SDS011;1552;51.952;7.618;2022-08-25T06:51:20;6.30;;;4.85;;
3083;SDS011;1552;51.952;7.618;2022-08-25T06:53:47;5.95;;;4.97;;
3083;SDS011;1552;51.952;7.618;2022-08-25T06:56:14;7.97;;;5.30;;
3083;SDS011;1552;51.952;7.618;2022-08-25T06:58:41;8.95;;;5.50;;
3083;SDS011;1552;51.952;7.618;2022-08-25T07:01:09;5.82;;;5.20;;
3083;SDS011;1552;51.952;7.618;2022-08-25T07:03:36;7.35;;;5.03;;
3083;SDS011;1552;51.952;7.618;2022-08-25T07:06:05;7.00;;;4.88;;
3083;SDS011;1552;51.952;7.618;2022-08-25T07:08:31;8.65;;;5.25;;
3083;SDS011;1552;51.952;7.618;2022-08-25T07:10:57;10.25;;;5.43;;
3083;SDS011;1552;51.952;7.618;2022-08-25T07:13:29;12.02;;;5.18;;
3083;SDS011;1552;51.952;7.618;2022-08-25T07:15:56;7.15;;;4.97;;
3083;SDS011;1552;51.952;7.618;2022-08-25T07:18:23;8.55;;;5.20;;
3083;SDS011;1552;51.952;7.618;2022-08-25T07:20:51;9.55;;;5.72;;
3083;SDS011;1552;51.952;7.618;2022-08-25T07:23:18;11.30;;;4.70;;
3083;SDS011;1552;51.952;7.618;2022-08-25T07:25:45;7.90;;;4.88;;
3083;SDS011;1552;51.952;7.618;2022-08-25T07:28:11;6.82;;;4.68;;
3083;SDS011;1552;51.952;7.618;2022-08-25T07:30:39;9.27;;;5.00;;
3083;SDS011;1552;51.952;7.618;2022-08-25T07:33:05;8.27;;;5.22;;
3083;SDS011;1552;51.952;7.618;2022-08-25T07:35:33;8.32;;;5.22;;
3083;SDS011;1552;51.952;7.618;2022-08-25T07:38:00;8.05;;;4.90;;
3083;SDS011;1552;51.952;7.618;2022-08-25T07:40:27;6.38;;;4.97;;
3083;SDS011;1552;51.952;7.618;2022-08-25T07:42:55;7.35;;;4.97;;
3083;SDS011;1552;51.952;7.618;2022-08-25T07:45:22;7.53;;;5.60;;
3083;SDS011;1552;51.952;7.618;2022-08-25T07:47:54;8.65;;;5.05;;
3083;SDS011;1552;51.952;7.618;2022-08-25T07:50:21;9.30;;;4.97;;
3083;SDS011;1552;51.952;7.618;2022-08-25T07:52:48;6.05;;;5.28;;
3083;SDS011;1552;51.952;7.618;2022-08-25T07:55:15;9.60;;;5.43;;
3083;SDS011;1552;51.952;7.618;2022-08-25T07:57:41;6.38;;;5.07;;
3083;SDS011;1552;51.952;7.618;2022-08-25T08:00:08;7.95;;;5.20;;
3083;SDS011;1552;51.952;7.618;2022-08-25T08:02:36;5.90;;;4.57;;
3083;SDS011;1552;51.952;7.618;2022-08-25T08:05:03;8.18;;;4.72;;
3083;SDS011;1552;51.952;7.618;2022-08-25T08:07:29;8.80;;;5.40;;
3083;SDS011;1552;51.952;7.618;2022-08-25T08:09:57;9.80;;;4.93;;
3083;SDS011;1552;51.952;7.618;2022-08-25T08:12:23;9.82;;;5.45;;
3083;SDS011;1552;51.952;7.618;2022-08-25T08:14:51;7.22;;;5.07;;
3083;SDS011;1552;51.952;7.618;2022-08-25T08:17:18;8.52;;;5.25;;
3083;SDS011;1552;51.952;7.618;2022-08-25T08:19:45;11.43;;;5.03;;
3083;SDS011;1552;51.952;7.618;2022-08-25T08:22:12;6.82;;;4.93;;
3083;SDS011;1552;51.952;7.618;2022-08-25T08:24:40;5.55;;;4.30;;
3083;SDS011;1552;51.952;7.618;2022-08-25T08:27:11;10.40;;;4.80;;
3083;SDS011;1552;51.952;7.618;2022-08-25T08:29:39;6.88;;;5.13;;
3083;SDS011;1552;51.952;7.618;2022-08-25T08:32:06;8.50;;;5.15;;
3083;SDS011;1552;51.952;7.618;2022-08-25T08:34:33;6.38;;;5.15;;
3083;SDS011;1552;51.952;7.618;2022-08-25T08:37:00;8.15;;;5.78;;
3083;SDS011;1552;51.952;7.618;2022-08-25T08:39:29;10.45;;;5.72;;
3083;SDS011;1552;51.952;7.618;2022-08-25T08:42:02;5.63;;;5.10;;
3083;SDS011;1552;51.952;7.618;2022-08-25T08:47:33;6.82;;;5.28;;
3083;SDS011;1552;51.952;7.618;2022-08-25T08:50:04;7.95;;;6.05;;
3083;SDS011;1552;51.952;7.618;2022-08-25T08:52:40;8.93;;;5.10;;
3083;SDS011;1552;51.952;7.618;2022-08-25T08:55:20;7.57;;;5.63;;
3083;SDS011;1552;51.952;7.618;2022-08-25T08:57:58;6.65;;;5.78;;
3083;SDS011;1552;51.952;7.618;2022-08-25T09:00:26;6.63;;;5.00;;
3083;SDS011;1552;51.952;7.618;2022-08-25T09:02:55;9.57;;;5.40;;
3083;SDS011;1552;51.952;7.618;2022-08-25T09:05:23;7.80;;;5.53;;
3083;SDS011;1552;51.952;7.618;2022-08-25T09:07:52;7.47;;;5.90;;
3083;SDS011;1552;51.952;7.618;2022-08-25T09:10:19;7.68;;;5.63;;
3083;SDS011;1552;51.952;7.618;2022-08-25T09:12:53;8.07;;;5.72;;
3083;SDS011;1552;51.952;7.618;2022-08-25T09:15:26;9.27;;;5.65;;
3083;SDS011;1552;51.952;7.618;2022-08-25T09:18:16;6.05;;;5.07;;
3083;SDS011;1552;51.952;7.618;2022-08-25T09:20:54;7.85;;;5.47;;
3083;SDS011;1552;51.952;7.618;2022-08-25T09:26:16;8.68;;;5.80;;
3083;SDS011;1552;51.952;7.618;2022-08-25T09:28:46;8.40;;;5.30;;
3083;SDS011;1552;51.952;7.618;2022-08-25T09:31:15;8.68;;;5.70;;
3083;SDS011;1552;51.952;7.618;2022-08-25T09:33:44;10.05;;;5.53;;
3083;SDS011;1552;51.952;7.618;2022-08-25T09:36:11;8.27;;;5.35;;
3083;SDS011;1552;51.952;7.618;2022-08-25T09:38:38;7.38;;;4.70;;
3083;SDS011;1552;51.952;7.618;2022-08-25T09:41:05;8.93;;;5.53;;
3083;SDS011;1552;51.952;7.618;2022-08-25T09:43:32;8.52;;;5.55;;
3083;SDS011;1552;51.952;7.618;2022-08-25T09:46:00;8.32;;;5.22;;
3083;SDS011;1552;51.952;7.618;2022-08-25T09:48:27;6.25;;;4.13;;
3083;SDS011;1552;51.952;7.618;2022-08-25T09:50:57;10.82;;;4.70;;
3083;SDS011;1552;51.952;7.618;2022-08-25T09:53:25;7.05;;;4.50;;
3083;SDS011;1552;51.952;7.618;2022-08-25T09:55:53;6.63;;;4.25;;
3083;SDS011;1552;51.952;7.618;2022-08-25T09:58:23;9.27;;;4.72;;
3083;SDS011;1552;51.952;7.618;2022-08-25T10:01:00;5.68;;;3.92;;
3083;SDS011;1552;51.952;7.618;2022-08-25T10:03:29;6.32;;;4.30;;
3083;SDS011;1552;51.952;7.618;2022-08-25T10:05:59;5.45;;;3.95;;
3083;SDS011;1552;51.952;7.618;2022-08-25T10:08:30;10.48;;;4.53;;
3083;SDS011;1552;51.952;7.618;2022-08-25T10:10:59;6.20;;;3.90;;
3083;SDS011;1552;51.952;7.618;2022-08-25T10:13:34;5.47;;;3.95;;
3083;SDS011;1552;51.952;7.618;2022-08-25T10:16:05;5.80;;;4.43;;
3083;SDS011;1552;51.952;7.618;2022-08-25T10:18:31;5.43;;;3.92;;
3083;SDS011;1552;51.952;7.618;2022-08-25T10:21:04;4.82;;;3.75;;
3083;SDS011;1552;51.952;7.618;2022-08-25T10:23:31;6.70;;;4.72;;
3083;SDS011;1552;51.952;7.618;2022-08-25T10:25:59;7.47;;;4.97;;
3083;SDS011;1552;51.952;7.618;2022-08-25T10:28:30;8.23;;;4.63;;
3083;SDS011;1552;51.952;7.618;2022-08-25T10:30:58;6.32;;;4.70;;
3083;SDS011;1552;51.952;7.618;2022-08-25T10:33:32;5.13;;;4.45;;
3083;SDS011;1552;51.952;7.618;2022-08-25T10:36:02;8.25;;;4.68;;
3083;SDS011;1552;51.952;7.618;2022-08-25T10:38:39;7.55;;;4.82;;
3083;SDS011;1552;51.952;7.618;2022-08-25T10:41:18;7.03;;;3.92;;
3083;SDS011;1552;51.952;7.618;2022-08-25T10:43:48;7.60;;;4.40;;
3083;SDS011;1552;51.952;7.618;2022-08-25T10:46:25;4.63;;;4.05;;
3083;SDS011;1552;51.952;7.618;2022-08-25T10:48:55;8.48;;;4.38;;
3083;SDS011;1552;51.952;7.618;2022-08-25T10:54:16;8.68;;;4.20;;
3083;SDS011;1552;51.952;7.618;2022-08-25T10:56:48;8.98;;;4.47;;
3083;SDS011;1552;51.952;7.618;2022-08-25T10:59:20;6.32;;;4.60;;
3083;SDS011;1552;51.952;7.618;2022-08-25T11:01:52;7.45;;;4.80;;
3083;SDS011;1552;51.952;7.618;2022-08-25T11:04:24;10.80;;;4.75;;
3083;SDS011;1552;51.952;7.618;2022-08-25T11:06:54;7.55;;;4.32;;
3083;SDS011;1552;51.952;7.618;2022-08-25T11:09:24;8.30;;;4.50;;
3083;SDS011;1552;51.952;7.618;2022-08-25T11:11:54;6.43;;;4.20;;
3083;SDS011;1552;51.952;7.618;2022-08-25T11:14:22;6.25;;;4.60;;
3083;SDS011;1552;51.952;7.618;2022-08-25T11:16:51;8.13;;;4.45;;
3083;SDS011;1552;51.952;7.618;2022-08-25T11:19:19;8.90;;;4.45;;
3083;SDS011;1552;51.952;7.618;2022-08-25T11:21:48;7.55;;;4.80;;
3083;SDS011;1552;51.952;7.618;2022-08-25T11:27:11;6.35;;;4.75;;
3083;SDS011;1552;51.952;7.618;2022-08-25T11:29:39;6.20;;;4.70;;
3083;SDS011;1552;51.952;7.618;2022-08-25T11:32:13;5.10;;;3.55;;
3083;SDS011;1552;51.952;7.618;2022-08-25T11:34:44;4.57;;;3.92;;
3083;SDS011;1552;51.952;7.618;2022-08-25T11:37:12;4.40;;;3.63;;
3083;SDS011;1552;51.952;7.618;2022-08-25T11:40:03;7.55;;;4.07;;
3083;SDS011;1552;51.952;7.618;2022-08-25T11:42:38;5.80;;;3.47;;
3083;SDS011;1552;51.952;7.618;2022-08-25T11:45:14;8.63;;;4.00;;
3083;SDS011;1552;51.952;7.618;2022-08-25T11:47:45;5.93;;;4.15;;
3083;SDS011;1552;51.952;7.618;2022-08-25T11:50:27;6.60;;;4.25;;
3083;SDS011;1552;51.952;7.618;2022-08-25T11:52:54;5.90;;;4.57;;
3083;SDS011;1552;51.952;7.618;2022-08-25T11:55:22;6.18;;;4.38;;
3083;SDS011;1552;51.952;7.618;2022-08-25T11:58:21;9.32;;;4.97;;
3083;SDS011;1552;51.952;7.618;2022-08-25T12:00:40;5.90;;;4.68;;
3083;SDS011;1552;51.952;7.618;2022-08-25T12:08:48;9.02;;;4.25;;
3083;SDS011;1552;51.952;7.618;2022-08-25T12:14:09;5.18;;;3.63;;
3083;SDS011;1552;51.952;7.618;2022-08-25T12:16:40;5.40;;;4.00;;
3083;SDS011;1552;51.952;7.618;2022-08-25T12:21:48;5.47;;;4.57;;
3083;SDS011;1552;51.952;7.618;2022-08-25T12:24:15;5.63;;;4.40;;
3083;SDS011;1552;51.952;7.618;2022-08-25T12:29:33;7.07;;;4.45;;
3083;SDS011;1552;51.952;7.618;2022-08-25T12:32:17;7.40;;;4.13;;
3083;SDS011;1552;51.952;7.618;2022-08-25T12:34:53;5.70;;;3.80;;
3083;SDS011;1552;51.952;7.618;2022-08-25T12:37:27;6.85;;;4.18;;
3083;SDS011;1552;51.952;7.618;2022-08-25T12:39:56;8.63;;;4.60;;
3083;SDS011;1552;51.952;7.618;2022-08-25T12:42:27;5.00;;;3.90;;
3083;SDS011;1552;51.952;7.618;2022-08-25T12:45:09;4.85;;;3.72;;
3083;SDS011;1552;51.952;7.618;2022-08-25T12:47:38;7.40;;;4.50;;
3083;SDS011;1552;51.952;7.618;2022-08-25T12:50:29;7.50;;;4.65;;
3083;SDS011;1552;51.952;7.618;2022-08-25T12:52:58;7.32;;;4.40;;
3083;SDS011;1552;51.952;7.618;2022-08-25T12:55:28;5.80;;;4.22;;
3083;SDS011;1552;51.952;7.618;2022-08-25T12:57:55;6.72;;;5.03;;
3083;SDS011;1552;51.952;7.618;2022-08-25T13:00:27;6.68;;;4.35;;
3083;SDS011;1552;51.952;7.618;2022-08-25T13:03:08;6.45;;;4.15;;
3083;SDS011;1552;51.952;7.618;2022-08-25T13:08:38;4.68;;;4.18;;
3083;SDS011;1552;51.952;7.618;2022-08-25T13:11:07;4.47;;;4.07;;
3083;SDS011;1552;51.952;7.618;2022-08-25T13:13:36;5.78;;;4.70;;
3083;SDS011;1552;51.952;7.618;2022-08-25T13:16:06;5.00;;;4.22;;
3083;SDS011;1552;51.952;7.618;2022-08-25T13:18:34;5.60;;;4.57;;
3083;SDS011;1552;51.952;7.618;2022-08-25T13:21:03;6.90;;;4.13;;
3083;SDS011;1552;51.952;7.618;2022-08-25T13:23:30;7.90;;;4.68;;
3083;SDS011;1552;51.952;7.618;2022-08-25T13:25:58;5.30;;;4.57;;
3083;SDS011;1552;51.952;7.618;2022-08-25T13:28:26;4.93;;;4.43;;
3083;SDS011;1552;51.952;7.618;2022-08-25T13:31:01;6.63;;;4.25;;
3083;SDS011;1552;51.952;7.618;2022-08-25T13:33:29;8.98;;;5.10;;
3083;SDS011;1552;51.952;7.618;2022-08-25T13:35:57;5.88;;;4.47;;
3083;SDS011;1552;51.952;7.618;2022-08-25T13:41:31;4.65;;;4.25;;
3083;SDS011;1552;51.952;7.618;2022-08-25T13:43:57;8.50;;;4.70;;
3083;SDS011;1552;51.952;7.618;2022-08-25T13:46:24;6.07;;;4.68;;
3083;SDS011;1552;51.952;7.618;2022-08-25T13:49:00;6.88;;;4.35;;
3083;SDS011;1552;51.952;7.618;2022-08-25T13:51:27;7.07;;;4.55;;
3083;SDS011;1552;51.952;7.618;2022-08-25T13:53:54;9.45;;;4.85;;
3083;SDS011;1552;51.952;7.618;2022-08-25T13:56:25;5.95;;;4.68;;
3083;SDS011;1552;51.952;7.618;2022-08-25T13:58:52;5.15;;;4.70;;
3083;SDS011;1552;51.952;7.618;2022-08-25T14:01:20;7.82;;;4.25;;
3083;SDS011;1552;51.952;7.618;2022-08-25T14:03:48;8.90;;;4.75;;
3083;SDS011;1552;51.952;7.618;2022-08-25T14:06:20;6.85;;;4.65;;
3083;SDS011;1552;51.952;7.618;2022-08-25T14:08:47;8.15;;;4.82;;
3083;SDS011;1552;51.952;7.618;2022-08-25T14:11:25;4.82;;;4.32;;
3083;SDS011;1552;51.952;7.618;2022-08-25T14:13:58;7.15;;;4.70;;
3083;SDS011;1552;51.952;7.618;2022-08-25T14:16:24;8.45;;;5.38;;
3083;SDS011;1552;51.952;7.618;2022-08-25T14:18:51;8.27;;;5.60;;
3083;SDS011;1552;51.952;7.618;2022-08-25T14:21:21;9.10;;;5.07;;
3083;SDS011;1552;51.952;7.618;2022-08-25T14:23:48;5.75;;;5.22;;
3083;SDS011;1552;51.952;7.618;2022-08-25T14:26:15;6.15;;;4.80;;
3083;SDS011;1552;51.952;7.618;2022-08-25T14:28:41;5.35;;;4.68;;
3083;SDS011;1552;51.952;7.618;2022-08-25T14:31:08;7.22;;;5.10;;
3083;SDS011;1552;51.952;7.618;2022-08-25T14:33:36;5.10;;;4.60;;
3083;SDS011;1552;51.952;7.618;2022-08-25T14:36:03;8.85;;;4.95;;
3083;SDS011;1552;51.952;7.618;2022-08-25T14:38:37;7.53;;;4.75;;
3083;SDS011;1552;51.952;7.618;2022-08-25T14:41:03;5.70;;;4.63;;
3083;SDS011;1552;51.952;7.618;2022-08-25T14:43:30;7.88;;;5.25;;
3083;SDS011;1552;51.952;7.618;2022-08-25T14:45:57;6.78;;;4.82;;
3083;SDS011;1552;51.952;7.618;2022-08-25T14:48:25;7.68;;;4.88;;
3083;SDS011;1552;51.952;7.618;2022-08-25T14:50:53;6.43;;;4.75;;
3083;SDS011;1552;51.952;7.618;2022-08-25T14:53:20;8.70;;;5.10;;
3083;SDS011;1552;51.952;7.618;2022-08-25T14:55:48;7.90;;;6.05;;
3083;SDS011;1552;51.952;7.618;2022-08-25T14:58:17;8.02;;;5.18;;
3083;SDS011;1552;51.952;7.618;2022-08-25T15:00:44;6.93;;;5.18;;
3083;SDS011;1552;51.952;7.618;2022-08-25T15:03:12;7.60;;;5.15;;
3083;SDS011;1552;51.952;7.618;2022-08-25T15:05:40;8.35;;;5.13;;
3083;SDS011;1552;51.952;7.618;2022-08-25T15:08:07;5.57;;;5.05;;
3083;SDS011;1552;51.952;7.618;2022-08-25T15:10:53;7.45;;;5.43;;
3083;SDS011;1552;51.952;7.618;2022-08-25T15:13:19;5.60;;;5.10;;
3083;SDS011;1552;51.952;7.618;2022-08-25T15:15:46;6.72;;;5.40;;
3083;SDS011;1552;51.952;7.618;2022-08-25T15:18:13;5.50;;;5.00;;
3083;SDS011;1552;51.952;7.618;2022-08-25T15:20:39;5.68;;;5.13;;
3083;SDS011;1552;51.952;7.618;2022-08-25T15:23:05;7.32;;;5.53;;
3083;SDS011;1552;51.952;7.618;2022-08-25T15:25:32;8.77;;;5.25;;
3083;SDS011;1552;51.952;7.618;2022-08-25T15:28:00;5.80;;;5.20;;
3083;SDS011;1552;51.952;7.618;2022-08-25T15:30:28;8.35;;;5.10;;
3083;SDS011;1552;51.952;7.618;2022-08-25T15:32:54;6.60;;;5.15;;
3083;SDS011;1552;51.952;7.618;2022-08-25T15:35:21;6.97;;;5.10;;
3083;SDS011;1552;51.952;7.618;2022-08-25T15:37:47;8.23;;;5.10;;
3083;SDS011;1552;51.952;7.618;2022-08-25T15:40:14;6.40;;;5.35;;
3083;SDS011;1552;51.952;7.618;2022-08-25T15:42:41;5.60;;;4.80;;
3083;SDS011;1552;51.952;7.618;2022-08-25T15:45:09;8.77;;;4.78;;
3083;SDS011;1552;51.952;7.618;2022-08-25T15:47:35;6.30;;;5.07;;
3083;SDS011;1552;51.952;7.618;2022-08-25T15:50:03;6.30;;;4.63;;
3083;SDS011;1552;51.952;7.618;2022-08-25T15:52:30;7.55;;;4.88;;
3083;SDS011;1552;51.952;7.618;2022-08-25T15:54:56;6.28;;;4.90;;